ADDS TAF Data INFO
IDs: Format: Raw Decoded Include METARs

Data at: 0733 UTC 16 Jan 2018

Region: TOP
KATL 160545Z 1606/1712 16004KT P6SM FEW200
  FM161000 20003KT P6SM FEW200
  FM161600 25007KT P6SM SCT120
  FM162100 30008KT P6SM BKN040 BKN100
  FM170000 32012G18KT P6SM OVC015
  PROB30 1700/1706 5SM -SN BR BKN025
  FM170600 32012G18KT P6SM BKN040 BKN100


KBOS 160543Z 1606/1712 33010KT P6SM OVC012
  FM160800 33006KT P6SM BKN015
  FM161600 00000KT P6SM OVC025
  FM162200 VRB03KT P6SM OVC035
  FM170700 17004KT 1SM -SN BR SCT020 OVC040
  FM171100 09005KT 1SM -SN BR OVC015


KBWI 160531Z 1606/1712 00000KT P6SM OVC015
  FM161200 00000KT 4SM BR OVC008
  FM161300 00000KT 4SM BR OVC003
  FM161500 VRB03KT P6SM BKN008
  FM161700 VRB03KT P6SM BKN025
  FM161900 VRB03KT P6SM BKN045
  FM170100 VRB03KT P6SM -SN OVC035
  FM170600 33008KT 1SM -SN OVC020


KCLE 160715Z 1607/1712 23006KT P6SM SCT025 BKN035
  FM160900 24006KT P6SM SCT015 OVC025
  FM170300 24007KT P6SM OVC015


KCLT 160540Z 1606/1712 17003KT P6SM SCT250
  FM161600 21006KT P6SM SCT120 BKN250
  FM170100 18004KT P6SM SCT050 BKN120
  PROB30 1704/1708 4SM -RASN OVC025
  FM170800 30005KT 4SM -SN SCT012 OVC028
  TEMPO 1709/1712 2SM -SN SCT007 OVC012


KCVG 160542Z 1606/1712 30011KT P6SM SCT015 OVC070
  FM161100 28007KT P6SM SCT020
  FM161900 27007KT P6SM BKN025
  FM170400 27005KT P6SM BKN035
  FM170900 26004KT P6SM OVC022


KDCA 160531Z 1606/1712 VRB03KT P6SM OVC009
  FM161200 VRB03KT 3SM BR OVC003
  FM161500 VRB03KT P6SM BKN010
  FM161700 VRB03KT P6SM BKN110
  FM170100 01004KT P6SM -SN OVC060
  FM170700 34007KT 3SM -SN OVC015
  FM170900 34009KT 3SM -SN OVC020


KDEN 160525Z 1606/1712 13008KT P6SM FEW035
  FM160800 18008KT P6SM SKC
  FM162000 12006KT P6SM FEW220
  FM170200 18008KT P6SM FEW220


KDFW 160520Z 1606/1712 36020G30KT P6SM -SN SCT035 OVC060
  TEMPO 1606/1608 6SM -SN BR BKN040
  FM161000 36017G27KT P6SM SCT050 OVC090
  FM161600 36016KT P6SM SCT100 SCT150 SCT300
  FM170100 01008KT P6SM SCT300


KDTW 160520Z 1606/1712 25005KT 5SM -SHSN BKN025
  FM161400 26005KT 6SM -SHSN BKN020
  FM162000 26006KT 3SM -SHSN BKN020
  FM170100 30007KT P6SM BKN020


KEWR 160704Z 1607/1712 VRB05KT P6SM SCT015
  TEMPO 1607/1609 BKN015
  FM160900 VRB04KT P6SM BKN030
  FM161400 VRB05KT P6SM BKN025
  FM161800 14006KT P6SM BKN020
  FM162100 13006KT 6SM -SN BKN020
  FM170000 VRB05KT 2SM -SN BKN015
  FM170500 VRB05KT 1SM -SN OVC008
  FM170900 VRB05KT 1SM -SN BR OVC008


KFLL 160534Z 1606/1712 06010G20KT P6SM VCSH FEW035 SCT045 BKN060
  FM161000 06012KT P6SM SCT030 SCT045
  FM161400 05012KT P6SM SCT040
  FM170100 03010KT P6SM SCT040
  FM170900 34006KT P6SM SCT025 SCT035


KIAD 160531Z 1606/1712 00000KT P6SM OVC008
  FM161100 VRB03KT P6SM OVC003
  FM161200 VRB03KT 3SM BR OVC003
  FM161500 VRB03KT P6SM BKN003
  FM161800 18004KT P6SM OVC060
  FM170000 36004KT P6SM OVC060
  FM170100 36005KT P6SM -SN OVC045
  FM170600 34007KT 2SM -SN OVC020


KIAH 160520Z 1606/1712 12007KT P6SM BKN045 BKN080
  FM160730 35015G25KT 5SM -SHRA SCT008 OVC012
  FM161200 36018G28KT 6SM -RAPL BR SCT008 OVC012
  FM161400 35017G27KT 5SM -FZRAPL BR OVC012
  FM161700 36019KT 5SM -SNPL BR OVC015
  FM162000 36016KT P6SM -SN OVC025
  FM162300 35012KT P6SM OVC080
  FM170900 35006KT P6SM SKC


KJFK 160554Z 1606/1712 04006KT P6SM SCT015
  TEMPO 1606/1609 BKN015
  FM160900 VRB04KT P6SM BKN030
  FM161400 10006KT P6SM BKN025
  FM161800 14007KT P6SM BKN020
  FM162200 13006KT 6SM -SN BKN020
  FM170100 VRB05KT 2SM -SN BKN015
  TEMPO 1703/1706 -RASN
  FM170600 06006KT 1SM -RASN OVC008
  FM170900 04007KT 1SM -SN BR OVC008


KLAS 160520Z 1606/1712 22006KT P6SM BKN200
  FM161600 VRB04KT P6SM BKN200
  FM162000 09005KT P6SM BKN250
  FM170300 22006KT P6SM SCT250


KLAX 160548Z 1606/1712 27008KT P6SM BKN008
  FM161600 VRB03KT P6SM SCT010 BKN200
  FM162000 26010KT P6SM BKN200
  FM170300 VRB03KT P6SM BKN200
  FM170900 VRB03KT P6SM BKN010


KLGA 160523Z 1606/1712 06008KT P6SM SCT015
  TEMPO 1606/1609 BKN015
  FM160900 VRB05KT P6SM BKN030
  FM161400 09006KT P6SM BKN025
  FM161800 11006KT P6SM BKN020
  FM162200 12006KT 6SM -SN BKN020
  FM170100 VRB05KT 2SM -SN BKN015
  TEMPO 1703/1706 -RASN
  FM170600 06006KT 1SM -SN OVC008
  FM170900 05007KT 1SM -SN BR OVC008


KMCO 160534Z 1606/1712 01010KT P6SM SKC
  FM161430 03009KT P6SM FEW040
  FM162300 02006KT P6SM SCT250


KMDW 160529Z 1606/1712 27012KT 1 1/2SM -SN SCT015 OVC025
  TEMPO 1607/1609 1SM -SN BR BKN009 OVC015
  FM161000 30010KT 2SM -SN SCT015 OVC025
  FM161500 32012KT 6SM -SN BKN025
  FM161800 33010KT P6SM BKN035
  FM170000 32008KT P6SM SCT040


KMEM 160528Z 1606/1712 35016G23KT 5SM -SN BR OVC010
  TEMPO 1606/1610 2SM -SN BR
  FM161400 36011KT P6SM -SN OVC035
  FM161800 35007KT P6SM SCT035


KMIA 160534Z 1606/1712 34006KT P6SM SCT035 BKN060
  FM161400 05012KT P6SM SCT040
  FM170100 02008KT P6SM SCT040
  FM170900 34006KT P6SM SCT025 SCT035


KMSP 160520Z 1606/1712 32012KT P6SM SCT018 BKN050
  FM161600 30007KT P6SM FEW018
  FM170000 24004KT P6SM SCT100


KORD 160529Z 1606/1712 27012KT 1 1/2SM -SN SCT015 OVC025
  TEMPO 1606/1609 3/4SM -SN BR BKN009 OVC015
  FM161000 30010KT 2SM -SN SCT015 OVC025
  FM161500 32012KT 6SM -SN BKN025
  FM161800 33010KT P6SM BKN035
  FM170000 32008KT P6SM SCT040


KPDX 160623Z 1606/1706 13010G18KT P6SM -SHRA BKN050 OVC090
  TEMPO 1606/1608 -SHRA BKN025 BKN035 OVC045
  FM161000 12009KT P6SM VCSH SCT015 BKN040 BKN060
  FM161800 11007KT P6SM OVC070


KPHL 160521Z 1606/1712 VRB03KT P6SM OVC015
  FM161600 15004KT P6SM SCT015 BKN035
  FM170100 07004KT P6SM OVC015
  FM170500 02004KT 1SM -SN OVC005
  FM171000 34010KT 2SM -SN OVC008


KPHX 160520Z 1606/1712 VRB03KT P6SM SCT250
  FM160900 10004KT P6SM BKN200
  TEMPO 1611/1615 BKN150
  FM161700 09010G20KT P6SM FEW150 BKN250
  FM162200 09006KT P6SM BKN250


KPIT 160520Z 1606/1712 21006KT 3SM -SN OVC025
  TEMPO 1606/1610 2SM -SN OVC015
  FM161000 24005KT 6SM -SN OVC008
  FM161800 24007KT 6SM -SN OVC015
  FM170100 28010KT P6SM OVC025


KSAN 160530Z 1606/1712 VRB03KT P6SM BKN200
  FM160900 VRB03KT 3SM BR VCFG SCT003
  FM161200 VRB04KT P6SM FEW005 BKN200
  FM162100 29008KT P6SM BKN200
  FM170200 VRB04KT P6SM BKN200


KSEA 160534Z 1606/1712 11008KT P6SM -RA FEW070 OVC080
  FM160800 16011KT P6SM -RA SCT025 OVC045
  FM161000 17009KT P6SM -RA OVC025
  FM161200 18008KT P6SM VCSH OVC025
  FM161900 19010G20KT P6SM VCSH SCT025 BKN040


KSFO 160520Z 1606/1712 27004KT 5SM BR OVC025
  FM160900 28004KT 4SM -RA OVC020
  FM161400 27005KT P6SM BKN025
  FM161600 27004KT P6SM SCT030 BKN050
  FM162000 33004KT P6SM SCT050


KSLC 160521Z 1606/1712 16005KT P6SM FEW200
  FM161900 33005KT P6SM SCT100 BKN200
  FM170400 15005KT P6SM BKN100 BKN200


KSTL 160520Z 1606/1712 30012G18KT P6SM SCT025
  TEMPO 1606/1609 BKN025
  FM161400 29009KT P6SM BKN025
  FM162200 30009KT P6SM BKN035
  FM170100 30007KT P6SM SCT040


KTPA 160521Z 1606/1712 04006KT P6SM FEW060
  FM161900 33007KT P6SM SCT050 SCT250
  FM170200 VRB04KT P6SM SCT050 SCT250